createdAt,value
2019-03-08T00:00:42.838Z,5.63
2019-03-08T00:05:50.533Z,6.43
2019-03-08T00:10:58.266Z,6.42
2019-03-08T00:16:05.932Z,7.32
2019-03-08T00:21:13.605Z,6.31
2019-03-08T00:26:21.287Z,6.28
2019-03-08T00:31:28.916Z,6.97
2019-03-08T00:36:36.592Z,7.82
2019-03-08T00:41:44.357Z,8.37
2019-03-08T00:46:52.024Z,10.54
2019-03-08T00:51:59.704Z,9.07
2019-03-08T00:57:07.378Z,9.59
2019-03-08T01:02:15.077Z,10.98
2019-03-08T01:07:22.711Z,12.78
2019-03-08T01:12:30.385Z,14.08
2019-03-08T01:17:38.072Z,14.16
2019-03-08T01:22:45.704Z,14.09
2019-03-08T01:27:53.345Z,11.70
2019-03-08T01:33:00.995Z,10.01
2019-03-08T01:38:08.628Z,7.85
2019-03-08T01:43:16.268Z,7.95
2019-03-08T01:48:23.936Z,7.27
2019-03-08T01:53:31.532Z,7.51
2019-03-08T01:58:39.212Z,6.32
2019-03-08T02:03:46.819Z,6.61
2019-03-08T02:08:54.461Z,6.97
2019-03-08T02:14:02.072Z,6.37
2019-03-08T02:19:09.761Z,6.04
2019-03-08T02:24:17.376Z,6.13
2019-03-08T02:29:25.117Z,6.29
2019-03-08T02:34:32.770Z,5.97
2019-03-08T02:39:40.516Z,6.67
2019-03-08T02:44:48.128Z,6.28
2019-03-08T02:49:55.847Z,6.76
2019-03-08T02:55:03.464Z,7.66
2019-03-08T03:00:11.173Z,7.67
2019-03-08T03:05:18.847Z,8.20
2019-03-08T03:10:26.592Z,8.03
2019-03-08T03:15:34.207Z,8.80
2019-03-08T03:20:41.913Z,10.37
2019-03-08T03:25:49.555Z,10.69
2019-03-08T03:30:57.248Z,8.23
2019-03-08T03:36:04.876Z,10.61
2019-03-08T03:41:12.620Z,8.24
2019-03-08T03:46:20.291Z,7.97
2019-03-08T03:51:28.516Z,9.01
2019-03-08T03:56:36.128Z,8.59
2019-03-08T04:01:43.796Z,7.97
2019-03-08T04:06:51.432Z,6.04
2019-03-08T04:11:59.096Z,5.39
2019-03-08T04:17:06.708Z,6.15
2019-03-08T04:22:14.349Z,7.24
2019-03-08T04:27:21.976Z,7.59
2019-03-08T04:32:29.592Z,8.07
2019-03-08T04:37:37.272Z,8.41
2019-03-08T04:42:44.895Z,7.28
2019-03-08T04:47:52.548Z,7.44
2019-03-08T04:53:00.172Z,7.42
2019-03-08T04:58:07.891Z,6.88
2019-03-08T05:03:15.515Z,7.15
2019-03-08T05:08:23.144Z,7.26
2019-03-08T05:13:30.836Z,6.65
2019-03-08T05:18:38.589Z,5.95
2019-03-08T05:23:46.230Z,5.97
2019-03-08T05:28:53.906Z,5.88
2019-03-08T05:34:01.592Z,6.06
2019-03-08T05:39:09.426Z,5.40
2019-03-08T05:44:17.032Z,5.44
2019-03-08T05:49:24.924Z,5.39
2019-03-08T05:54:32.601Z,5.82
2019-03-08T05:59:40.576Z,6.10
2019-03-08T06:04:48.209Z,5.72
2019-03-08T06:09:55.906Z,5.22
2019-03-08T06:15:03.596Z,5.62
2019-03-08T06:20:11.272Z,5.93
2019-03-08T06:25:18.901Z,6.34
2019-03-08T06:30:26.592Z,5.46
2019-03-08T06:35:34.301Z,6.70
2019-03-08T06:40:42.021Z,5.57
2019-03-08T06:45:49.689Z,6.14
2019-03-08T06:50:57.448Z,5.19
2019-03-08T06:56:05.122Z,6.02
2019-03-08T07:01:12.900Z,5.32
2019-03-08T07:06:20.574Z,5.74
2019-03-08T07:11:28.321Z,4.44
2019-03-08T07:16:36.049Z,4.23
2019-03-08T07:21:43.749Z,4.72
2019-03-08T07:26:51.440Z,5.27
2019-03-08T07:31:59.120Z,4.54
2019-03-08T07:37:06.797Z,4.58
2019-03-08T07:42:14.506Z,5.46
2019-03-08T07:47:22.215Z,5.21
2019-03-08T07:52:29.928Z,5.59
2019-03-08T07:57:37.628Z,5.49
2019-03-08T08:02:45.293Z,4.56
2019-03-08T08:07:52.989Z,4.25
2019-03-08T08:13:00.645Z,5.20
2019-03-08T08:18:08.321Z,4.02
2019-03-08T08:23:16.021Z,4.87
2019-03-08T08:28:23.696Z,5.14
2019-03-08T08:33:31.377Z,4.18
2019-03-08T08:38:39.086Z,4.52
2019-03-08T08:43:46.742Z,4.82
2019-03-08T08:48:54.449Z,3.78
2019-03-08T08:54:02.125Z,4.03
2019-03-08T08:59:09.830Z,4.50
2019-03-08T09:04:17.853Z,4.82
2019-03-08T09:09:25.600Z,4.23
2019-03-08T09:14:33.627Z,3.85
2019-03-08T09:19:41.276Z,4.08
2019-03-08T09:24:48.908Z,3.81
2019-03-08T09:29:56.576Z,4.87
2019-03-08T09:35:04.239Z,3.93
2019-03-08T09:40:11.986Z,3.36
2019-03-08T09:45:19.871Z,4.23
2019-03-08T09:50:27.588Z,3.45
2019-03-08T09:55:35.245Z,3.49
2019-03-08T10:00:43.008Z,3.50
2019-03-08T10:05:50.649Z,2.57
2019-03-08T10:10:58.352Z,3.63
2019-03-08T10:16:06.012Z,3.66
2019-03-08T10:21:13.702Z,3.44
2019-03-08T10:26:21.376Z,3.81
2019-03-08T10:31:29.059Z,3.27
2019-03-08T10:36:36.720Z,3.65
2019-03-08T10:41:44.473Z,3.67
2019-03-08T10:46:52.124Z,4.13
2019-03-08T10:52:00.100Z,4.02
2019-03-08T10:57:07.724Z,3.91
2019-03-08T11:02:15.389Z,2.97
2019-03-08T11:07:22.984Z,3.21
2019-03-08T11:12:30.599Z,2.83
2019-03-08T11:17:38.280Z,3.34
2019-03-08T11:22:45.933Z,3.24
2019-03-08T11:27:53.729Z,2.79
2019-03-08T11:33:01.372Z,2.72
2019-03-08T11:38:09.063Z,2.57
2019-03-08T11:43:16.716Z,2.21
2019-03-08T11:48:24.429Z,2.33
2019-03-08T11:53:32.060Z,2.31
2019-03-08T11:58:39.683Z,3.05
2019-03-08T12:03:47.315Z,2.77
2019-03-08T12:08:54.994Z,2.84
2019-03-08T12:14:02.641Z,3.53
2019-03-08T12:19:10.329Z,3.72
2019-03-08T12:24:17.972Z,3.89
2019-03-08T12:29:25.640Z,3.69
2019-03-08T12:34:33.326Z,3.20
2019-03-08T12:39:41.014Z,3.45
2019-03-08T12:44:48.813Z,3.39
2019-03-08T12:49:56.501Z,2.73
2019-03-08T12:55:04.180Z,3.38
2019-03-08T13:00:11.856Z,2.26
2019-03-08T13:05:19.640Z,2.25
2019-03-08T13:10:27.325Z,2.64
2019-03-08T13:15:35.015Z,3.04
2019-03-08T13:20:42.687Z,3.56
2019-03-08T13:25:50.588Z,3.38
2019-03-08T13:30:58.256Z,3.26
2019-03-08T13:36:05.922Z,3.66
2019-03-08T13:41:13.604Z,3.68
2019-03-08T13:46:21.280Z,3.91
2019-03-08T13:51:28.948Z,3.82
2019-03-08T13:56:36.613Z,3.71
2019-03-08T14:01:44.400Z,3.90
2019-03-08T14:06:52.067Z,4.59
2019-03-08T14:11:59.772Z,5.01
2019-03-08T14:17:07.453Z,5.69
2019-03-08T14:22:15.141Z,7.25
2019-03-08T14:27:22.813Z,6.97
2019-03-08T14:32:30.424Z,6.38
2019-03-08T14:37:38.108Z,6.73
2019-03-08T14:42:45.790Z,6.38
2019-03-08T14:47:53.458Z,6.66
2019-03-08T14:53:01.165Z,7.05
2019-03-08T14:58:08.852Z,7.15
2019-03-08T15:03:16.535Z,7.09
2019-03-08T15:08:23.741Z,6.92
2019-03-08T15:13:31.602Z,6.58
2019-03-08T15:18:39.272Z,7.30
2019-03-08T15:23:46.946Z,7.59
2019-03-08T15:28:54.617Z,7.26
2019-03-08T15:34:02.283Z,7.34
2019-03-08T15:39:09.956Z,7.26
2019-03-08T15:44:17.630Z,6.61
2019-03-08T15:49:26.680Z,7.51
2019-03-08T15:54:32.512Z,6.85
2019-03-08T15:59:40.200Z,6.85
2019-03-08T16:04:50.151Z,7.33
2019-03-08T16:09:55.113Z,7.53
2019-03-08T16:15:02.861Z,8.10
2019-03-08T16:20:10.503Z,7.99
2019-03-08T16:25:18.199Z,10.14
2019-03-08T16:30:25.901Z,8.26
2019-03-08T16:35:33.593Z,9.05
2019-03-08T16:40:41.208Z,8.44
2019-03-08T16:45:50.649Z,8.74
2019-03-08T16:51:00.017Z,9.62
2019-03-08T16:56:03.315Z,8.55
2019-03-08T17:01:10.957Z,8.90
2019-03-08T17:06:26.406Z,8.71
2019-03-08T17:11:25.841Z,7.74
2019-03-08T17:16:33.796Z,6.54
2019-03-08T17:21:41.432Z,3.91
2019-03-08T17:26:49.165Z,2.87
2019-03-08T17:31:56.808Z,2.87
2019-03-08T17:37:04.434Z,3.45
2019-03-08T17:42:12.068Z,3.47
2019-03-08T17:47:19.684Z,3.61
2019-03-08T17:52:27.625Z,3.43
2019-03-08T17:57:35.326Z,2.80
2019-03-08T18:02:42.939Z,2.79
2019-03-08T18:07:50.577Z,2.22
2019-03-08T18:12:58.181Z,2.57
2019-03-08T18:18:05.885Z,2.68
2019-03-08T18:23:13.517Z,2.30
2019-03-08T18:28:21.165Z,2.58
2019-03-08T18:33:28.806Z,2.43
2019-03-08T18:38:36.448Z,2.38
2019-03-08T18:43:44.064Z,2.65
2019-03-08T18:48:51.833Z,2.55
2019-03-08T18:53:59.432Z,2.59
2019-03-08T18:59:07.100Z,3.32
2019-03-08T19:04:14.708Z,2.86
2019-03-08T19:09:22.596Z,2.88
2019-03-08T19:14:30.241Z,3.47
2019-03-08T19:19:37.880Z,3.46
2019-03-08T19:24:45.505Z,2.72
2019-03-08T19:29:53.152Z,3.20
2019-03-08T19:35:00.776Z,2.67
2019-03-08T19:40:08.432Z,2.88
2019-03-08T19:45:16.046Z,2.68
2019-03-08T19:50:23.796Z,2.79
2019-03-08T19:55:31.416Z,3.31
2019-03-08T20:00:39.088Z,2.74
2019-03-08T20:05:46.706Z,2.96
2019-03-08T20:10:54.428Z,4.14
2019-03-08T20:16:02.096Z,3.70
2019-03-08T20:21:09.740Z,4.30
2019-03-08T20:26:17.425Z,4.62
2019-03-08T20:31:25.407Z,4.97
2019-03-08T20:36:33.093Z,6.45
2019-03-08T20:41:40.744Z,4.42
2019-03-08T20:46:48.433Z,4.62
2019-03-08T20:51:56.137Z,5.89
2019-03-08T20:57:03.808Z,7.05
2019-03-08T21:02:11.500Z,4.96
2019-03-08T21:07:19.147Z,4.98
2019-03-08T21:12:26.888Z,4.22
2019-03-08T21:17:34.572Z,4.17
2019-03-08T21:22:42.306Z,3.90
2019-03-08T21:27:50.008Z,4.22
2019-03-08T21:32:57.717Z,4.55
2019-03-08T21:38:05.443Z,5.74
2019-03-08T21:43:13.149Z,6.98
2019-03-08T21:48:20.820Z,7.36
2019-03-08T21:53:28.505Z,6.66
2019-03-08T21:58:36.174Z,6.56
2019-03-08T22:03:43.872Z,7.27
2019-03-08T22:08:51.552Z,5.83
2019-03-08T22:13:59.232Z,5.44
2019-03-08T22:19:07.013Z,5.37
2019-03-08T22:24:14.679Z,4.61
2019-03-08T22:29:22.426Z,4.68
2019-03-08T22:34:30.091Z,4.66
2019-03-08T22:39:37.768Z,5.35
2019-03-08T22:44:45.574Z,4.39
2019-03-08T22:49:53.329Z,4.54
2019-03-08T22:55:00.995Z,4.76
2019-03-08T23:00:08.677Z,3.84
2019-03-08T23:05:16.344Z,4.21
2019-03-08T23:10:23.993Z,4.44
2019-03-08T23:15:31.662Z,5.31
2019-03-08T23:20:39.337Z,5.56
2019-03-08T23:25:47.092Z,5.08
2019-03-08T23:30:54.701Z,5.38
2019-03-08T23:36:02.399Z,5.15
2019-03-08T23:41:10.064Z,5.50
2019-03-08T23:46:17.816Z,5.21
2019-03-08T23:51:25.432Z,4.94
2019-03-08T23:56:33.145Z,5.38
